sensor_id;sensor_type;location;lat;lon;timestamp;P1;durP1;ratioP1;P2;durP2;ratioP2
305;SDS011;137;48.578;9.180;2022-12-26T00:08:20;5.13;;;4.67;;
305;SDS011;137;48.578;9.180;2022-12-26T00:11:01;5.27;;;4.20;;
305;SDS011;137;48.578;9.180;2022-12-26T00:13:43;4.63;;;4.20;;
305;SDS011;137;48.578;9.180;2022-12-26T00:16:13;5.20;;;4.40;;
305;SDS011;137;48.578;9.180;2022-12-26T00:18:55;4.70;;;4.23;;
305;SDS011;137;48.578;9.180;2022-12-26T00:21:36;4.83;;;4.23;;
305;SDS011;137;48.578;9.180;2022-12-26T00:27:31;5.40;;;4.60;;
305;SDS011;137;48.578;9.180;2022-12-26T00:30:12;5.33;;;4.53;;
305;SDS011;137;48.578;9.180;2022-12-26T00:32:53;5.53;;;4.37;;
305;SDS011;137;48.578;9.180;2022-12-26T00:35:34;5.00;;;4.60;;
305;SDS011;137;48.578;9.180;2022-12-26T00:38:15;4.47;;;4.07;;
305;SDS011;137;48.578;9.180;2022-12-26T00:40:56;4.97;;;4.27;;
305;SDS011;137;48.578;9.180;2022-12-26T00:53:01;6.10;;;4.70;;
305;SDS011;137;48.578;9.180;2022-12-26T00:55:43;5.97;;;4.97;;
305;SDS011;137;48.578;9.180;2022-12-26T00:58:24;5.30;;;4.77;;
305;SDS011;137;48.578;9.180;2022-12-26T01:01:06;6.90;;;5.30;;
305;SDS011;137;48.578;9.180;2022-12-26T01:03:48;5.03;;;4.47;;
305;SDS011;137;48.578;9.180;2022-12-26T01:06:17;5.43;;;4.90;;
305;SDS011;137;48.578;9.180;2022-12-26T01:09:03;5.23;;;4.70;;
305;SDS011;137;48.578;9.180;2022-12-26T01:11:44;4.80;;;4.40;;
305;SDS011;137;48.578;9.180;2022-12-26T01:14:16;5.20;;;4.70;;
305;SDS011;137;48.578;9.180;2022-12-26T01:16:44;4.23;;;3.83;;
305;SDS011;137;48.578;9.180;2022-12-26T01:19:25;4.83;;;4.43;;
305;SDS011;137;48.578;9.180;2022-12-26T01:22:06;5.73;;;4.93;;
305;SDS011;137;48.578;9.180;2022-12-26T01:34:21;4.47;;;4.07;;
305;SDS011;137;48.578;9.180;2022-12-26T01:37:02;4.13;;;3.73;;
305;SDS011;137;48.578;9.180;2022-12-26T01:39:43;4.27;;;3.87;;
305;SDS011;137;48.578;9.180;2022-12-26T01:42:24;7.60;;;4.50;;
305;SDS011;137;48.578;9.180;2022-12-26T01:45:20;4.50;;;4.10;;
305;SDS011;137;48.578;9.180;2022-12-26T01:47:51;4.67;;;4.00;;
305;SDS011;137;48.578;9.180;2022-12-26T01:50:34;4.40;;;4.00;;
305;SDS011;137;48.578;9.180;2022-12-26T01:53:05;4.60;;;3.90;;
305;SDS011;137;48.578;9.180;2022-12-26T01:55:52;4.40;;;3.40;;
305;SDS011;137;48.578;9.180;2022-12-26T01:58:38;5.17;;;4.70;;
305;SDS011;137;48.578;9.180;2022-12-26T02:01:13;8.53;;;5.37;;
305;SDS011;137;48.578;9.180;2022-12-26T02:03:47;4.83;;;4.43;;
305;SDS011;137;48.578;9.180;2022-12-26T02:06:33;4.20;;;3.67;;
305;SDS011;137;48.578;9.180;2022-12-26T02:09:02;4.40;;;3.77;;
305;SDS011;137;48.578;9.180;2022-12-26T02:11:43;4.50;;;4.03;;
305;SDS011;137;48.578;9.180;2022-12-26T02:14:50;3.90;;;3.60;;
305;SDS011;137;48.578;9.180;2022-12-26T02:17:18;4.93;;;4.33;;
305;SDS011;137;48.578;9.180;2022-12-26T02:20:00;6.30;;;4.10;;
305;SDS011;137;48.578;9.180;2022-12-26T02:22:58;3.97;;;3.63;;
305;SDS011;137;48.578;9.180;2022-12-26T02:45:58;4.20;;;3.57;;
305;SDS011;137;48.578;9.180;2022-12-26T02:48:52;3.43;;;3.13;;
305;SDS011;137;48.578;9.180;2022-12-26T02:51:31;4.07;;;3.60;;
305;SDS011;137;48.578;9.180;2022-12-26T02:54:30;4.00;;;3.60;;
305;SDS011;137;48.578;9.180;2022-12-26T02:57:22;3.67;;;3.37;;
305;SDS011;137;48.578;9.180;2022-12-26T03:00:10;4.60;;;3.90;;
305;SDS011;137;48.578;9.180;2022-12-26T03:12:49;3.97;;;3.50;;
305;SDS011;137;48.578;9.180;2022-12-26T03:15:40;4.90;;;3.77;;
305;SDS011;137;48.578;9.180;2022-12-26T03:18:31;4.17;;;3.70;;
305;SDS011;137;48.578;9.180;2022-12-26T03:21:04;4.07;;;3.67;;
305;SDS011;137;48.578;9.180;2022-12-26T03:23:36;5.50;;;4.07;;
305;SDS011;137;48.578;9.180;2022-12-26T03:26:21;3.57;;;3.27;;
305;SDS011;137;48.578;9.180;2022-12-26T03:32:14;3.87;;;3.20;;
305;SDS011;137;48.578;9.180;2022-12-26T03:34:42;4.13;;;3.73;;
305;SDS011;137;48.578;9.180;2022-12-26T03:37:20;4.90;;;4.37;;
305;SDS011;137;48.578;9.180;2022-12-26T03:40:13;3.37;;;3.07;;
305;SDS011;137;48.578;9.180;2022-12-26T03:43:07;4.50;;;3.33;;
305;SDS011;137;48.578;9.180;2022-12-26T03:46:00;3.50;;;3.20;;
305;SDS011;137;48.578;9.180;2022-12-26T03:48:51;3.83;;;3.47;;
305;SDS011;137;48.578;9.180;2022-12-26T03:51:41;5.70;;;3.30;;
305;SDS011;137;48.578;9.180;2022-12-26T03:54:34;3.63;;;3.30;;
305;SDS011;137;48.578;9.180;2022-12-26T03:57:29;4.13;;;3.60;;
305;SDS011;137;48.578;9.180;2022-12-26T04:00:16;3.03;;;2.70;;
305;SDS011;137;48.578;9.180;2022-12-26T04:03:04;3.70;;;3.20;;
305;SDS011;137;48.578;9.180;2022-12-26T04:05:51;3.70;;;3.23;;
305;SDS011;137;48.578;9.180;2022-12-26T04:08:42;3.13;;;2.70;;
305;SDS011;137;48.578;9.180;2022-12-26T04:11:30;4.20;;;3.80;;
305;SDS011;137;48.578;9.180;2022-12-26T04:14:19;3.20;;;2.73;;
305;SDS011;137;48.578;9.180;2022-12-26T04:17:13;3.80;;;3.13;;
305;SDS011;137;48.578;9.180;2022-12-26T04:32:53;2.57;;;2.23;;
305;SDS011;137;48.578;9.180;2022-12-26T04:35:43;3.30;;;3.00;;
305;SDS011;137;48.578;9.180;2022-12-26T04:38:32;4.33;;;3.17;;
305;SDS011;137;48.578;9.180;2022-12-26T04:41:20;2.80;;;2.60;;
305;SDS011;137;48.578;9.180;2022-12-26T04:44:08;3.37;;;2.30;;
305;SDS011;137;48.578;9.180;2022-12-26T04:52:41;2.93;;;2.40;;
305;SDS011;137;48.578;9.180;2022-12-26T04:55:34;3.00;;;2.70;;
305;SDS011;137;48.578;9.180;2022-12-26T04:58:15;3.70;;;2.97;;
305;SDS011;137;48.578;9.180;2022-12-26T05:00:43;2.73;;;2.53;;
305;SDS011;137;48.578;9.180;2022-12-26T05:03:24;5.30;;;3.20;;
305;SDS011;137;48.578;9.180;2022-12-26T05:06:11;3.70;;;3.30;;
305;SDS011;137;48.578;9.180;2022-12-26T05:08:55;3.83;;;2.90;;
305;SDS011;137;48.578;9.180;2022-12-26T05:11:40;3.50;;;3.20;;
305;SDS011;137;48.578;9.180;2022-12-26T05:14:22;5.00;;;3.87;;
305;SDS011;137;48.578;9.180;2022-12-26T05:17:03;5.40;;;4.97;;
305;SDS011;137;48.578;9.180;2022-12-26T05:19:48;3.07;;;2.87;;
305;SDS011;137;48.578;9.180;2022-12-26T05:25:52;2.87;;;2.67;;
305;SDS011;137;48.578;9.180;2022-12-26T05:28:37;2.47;;;2.27;;
305;SDS011;137;48.578;9.180;2022-12-26T05:31:08;2.37;;;2.17;;
305;SDS011;137;48.578;9.180;2022-12-26T05:33:49;3.10;;;2.80;;
305;SDS011;137;48.578;9.180;2022-12-26T05:36:48;2.20;;;2.00;;
305;SDS011;137;48.578;9.180;2022-12-26T05:39:19;2.40;;;2.20;;
305;SDS011;137;48.578;9.180;2022-12-26T06:04:01;5.83;;;3.93;;
305;SDS011;137;48.578;9.180;2022-12-26T06:06:42;7.97;;;2.50;;
305;SDS011;137;48.578;9.180;2022-12-26T06:09:23;2.83;;;1.93;;
305;SDS011;137;48.578;9.180;2022-12-26T06:11:50;3.10;;;2.40;;
305;SDS011;137;48.578;9.180;2022-12-26T06:14:21;2.33;;;2.13;;
305;SDS011;137;48.578;9.180;2022-12-26T06:16:49;5.30;;;2.70;;
305;SDS011;137;48.578;9.180;2022-12-26T06:19:35;3.40;;;2.40;;
305;SDS011;137;48.578;9.180;2022-12-26T06:22:05;2.83;;;2.30;;
305;SDS011;137;48.578;9.180;2022-12-26T06:24:32;3.43;;;3.10;;
305;SDS011;137;48.578;9.180;2022-12-26T06:27:13;6.03;;;3.30;;
305;SDS011;137;48.578;9.180;2022-12-26T06:29:53;3.33;;;3.03;;
305;SDS011;137;48.578;9.180;2022-12-26T06:32:34;29.57;;;24.70;;
305;SDS011;137;48.578;9.180;2022-12-26T06:37:53;4.03;;;3.53;;
305;SDS011;137;48.578;9.180;2022-12-26T06:40:36;5.23;;;3.90;;
305;SDS011;137;48.578;9.180;2022-12-26T06:43:07;6.90;;;3.90;;
305;SDS011;137;48.578;9.180;2022-12-26T06:45:42;5.20;;;3.83;;
305;SDS011;137;48.578;9.180;2022-12-26T06:48:09;6.00;;;4.00;;
305;SDS011;137;48.578;9.180;2022-12-26T06:50:46;5.13;;;4.60;;
305;SDS011;137;48.578;9.180;2022-12-26T06:53:18;5.67;;;4.70;;
305;SDS011;137;48.578;9.180;2022-12-26T06:55:45;6.23;;;4.13;;
305;SDS011;137;48.578;9.180;2022-12-26T06:58:13;7.43;;;5.57;;
305;SDS011;137;48.578;9.180;2022-12-26T07:00:40;7.77;;;6.60;;
305;SDS011;137;48.578;9.180;2022-12-26T07:03:11;7.70;;;6.10;;
305;SDS011;137;48.578;9.180;2022-12-26T07:05:43;5.67;;;5.07;;
305;SDS011;137;48.578;9.180;2022-12-26T07:08:13;5.80;;;5.30;;
305;SDS011;137;48.578;9.180;2022-12-26T07:10:48;4.60;;;4.00;;
305;SDS011;137;48.578;9.180;2022-12-26T07:13:29;3.13;;;2.83;;
305;SDS011;137;48.578;9.180;2022-12-26T07:16:04;3.20;;;2.90;;
305;SDS011;137;48.578;9.180;2022-12-26T07:18:32;5.43;;;3.27;;
305;SDS011;137;48.578;9.180;2022-12-26T07:21:05;2.53;;;2.30;;
305;SDS011;137;48.578;9.180;2022-12-26T07:23:46;4.90;;;2.80;;
305;SDS011;137;48.578;9.180;2022-12-26T07:26:15;3.10;;;2.80;;
305;SDS011;137;48.578;9.180;2022-12-26T07:28:45;3.27;;;2.90;;
305;SDS011;137;48.578;9.180;2022-12-26T07:31:16;3.00;;;2.23;;
305;SDS011;137;48.578;9.180;2022-12-26T07:33:58;3.20;;;2.43;;
305;SDS011;137;48.578;9.180;2022-12-26T07:36:31;3.80;;;3.40;;
305;SDS011;137;48.578;9.180;2022-12-26T07:38:58;2.40;;;2.20;;
305;SDS011;137;48.578;9.180;2022-12-26T07:41:32;3.90;;;3.60;;
305;SDS011;137;48.578;9.180;2022-12-26T07:44:22;4.33;;;3.50;;
305;SDS011;137;48.578;9.180;2022-12-26T07:46:52;3.73;;;3.37;;
305;SDS011;137;48.578;9.180;2022-12-26T07:49:22;5.50;;;3.53;;
305;SDS011;137;48.578;9.180;2022-12-26T07:51:55;4.47;;;3.90;;
305;SDS011;137;48.578;9.180;2022-12-26T07:54:36;4.50;;;4.10;;
305;SDS011;137;48.578;9.180;2022-12-26T07:57:06;6.70;;;5.50;;
305;SDS011;137;48.578;9.180;2022-12-26T07:59:35;6.97;;;5.87;;
305;SDS011;137;48.578;9.180;2022-12-26T08:02:02;8.43;;;6.30;;
305;SDS011;137;48.578;9.180;2022-12-26T08:04:30;5.83;;;5.33;;
305;SDS011;137;48.578;9.180;2022-12-26T08:07:00;4.87;;;4.40;;
305;SDS011;137;48.578;9.180;2022-12-26T08:09:30;5.23;;;4.73;;
305;SDS011;137;48.578;9.180;2022-12-26T08:12:06;3.70;;;3.40;;
305;SDS011;137;48.578;9.180;2022-12-26T08:14:48;3.10;;;2.80;;
305;SDS011;137;48.578;9.180;2022-12-26T08:17:30;4.97;;;3.80;;
305;SDS011;137;48.578;9.180;2022-12-26T08:19:59;3.33;;;2.60;;
305;SDS011;137;48.578;9.180;2022-12-26T08:55:22;6.07;;;4.60;;
305;SDS011;137;48.578;9.180;2022-12-26T08:58:33;4.93;;;4.10;;
305;SDS011;137;48.578;9.180;2022-12-26T09:08:23;11.73;;;4.57;;
305;SDS011;137;48.578;9.180;2022-12-26T09:10:53;8.97;;;5.20;;
305;SDS011;137;48.578;9.180;2022-12-26T09:13:21;6.20;;;5.60;;
305;SDS011;137;48.578;9.180;2022-12-26T09:15:48;6.53;;;5.50;;
305;SDS011;137;48.578;9.180;2022-12-26T09:18:14;8.30;;;5.20;;
305;SDS011;137;48.578;9.180;2022-12-26T09:20:41;10.67;;;7.00;;
305;SDS011;137;48.578;9.180;2022-12-26T09:23:08;11.40;;;7.60;;
305;SDS011;137;48.578;9.180;2022-12-26T09:25:35;8.20;;;6.67;;
305;SDS011;137;48.578;9.180;2022-12-26T09:28:03;9.80;;;6.60;;
305;SDS011;137;48.578;9.180;2022-12-26T09:30:31;8.83;;;6.30;;
305;SDS011;137;48.578;9.180;2022-12-26T09:32:59;4.30;;;3.90;;
305;SDS011;137;48.578;9.180;2022-12-26T09:35:28;3.87;;;3.50;;
305;SDS011;137;48.578;9.180;2022-12-26T09:37:54;3.70;;;3.10;;
305;SDS011;137;48.578;9.180;2022-12-26T09:40:22;4.23;;;3.37;;
305;SDS011;137;48.578;9.180;2022-12-26T09:42:56;4.13;;;3.17;;
305;SDS011;137;48.578;9.180;2022-12-26T09:45:40;3.70;;;3.27;;
305;SDS011;137;48.578;9.180;2022-12-26T09:48:16;4.33;;;3.80;;
305;SDS011;137;48.578;9.180;2022-12-26T09:50:49;4.00;;;3.17;;
305;SDS011;137;48.578;9.180;2022-12-26T09:53:18;6.00;;;3.80;;
305;SDS011;137;48.578;9.180;2022-12-26T09:55:51;6.20;;;3.80;;
305;SDS011;137;48.578;9.180;2022-12-26T09:58:22;3.87;;;2.80;;
305;SDS011;137;48.578;9.180;2022-12-26T10:00:57;4.30;;;3.90;;
305;SDS011;137;48.578;9.180;2022-12-26T10:03:28;3.77;;;3.20;;
305;SDS011;137;48.578;9.180;2022-12-26T10:06:07;5.47;;;3.63;;
305;SDS011;137;48.578;9.180;2022-12-26T10:08:40;4.50;;;3.07;;
305;SDS011;137;48.578;9.180;2022-12-26T10:11:18;4.30;;;3.90;;
305;SDS011;137;48.578;9.180;2022-12-26T10:14:08;4.50;;;3.83;;
305;SDS011;137;48.578;9.180;2022-12-26T10:16:45;5.80;;;4.70;;
305;SDS011;137;48.578;9.180;2022-12-26T10:19:30;7.47;;;3.50;;
305;SDS011;137;48.578;9.180;2022-12-26T10:22:15;5.27;;;4.77;;
305;SDS011;137;48.578;9.180;2022-12-26T10:24:54;6.80;;;4.97;;
305;SDS011;137;48.578;9.180;2022-12-26T10:27:24;4.00;;;3.70;;
305;SDS011;137;48.578;9.180;2022-12-26T10:29:54;4.90;;;3.83;;
305;SDS011;137;48.578;9.180;2022-12-26T10:32:27;5.23;;;4.43;;
305;SDS011;137;48.578;9.180;2022-12-26T10:34:59;4.00;;;3.60;;
305;SDS011;137;48.578;9.180;2022-12-26T10:37:34;6.60;;;4.10;;
305;SDS011;137;48.578;9.180;2022-12-26T10:40:07;4.37;;;3.97;;
305;SDS011;137;48.578;9.180;2022-12-26T10:42:44;6.50;;;4.50;;
305;SDS011;137;48.578;9.180;2022-12-26T10:45:13;6.07;;;4.10;;
305;SDS011;137;48.578;9.180;2022-12-26T10:47:44;3.93;;;3.40;;
305;SDS011;137;48.578;9.180;2022-12-26T10:50:13;3.50;;;2.97;;
305;SDS011;137;48.578;9.180;2022-12-26T10:52:41;4.53;;;2.60;;
305;SDS011;137;48.578;9.180;2022-12-26T10:55:12;2.50;;;2.30;;
305;SDS011;137;48.578;9.180;2022-12-26T10:57:39;3.33;;;2.20;;
305;SDS011;137;48.578;9.180;2022-12-26T11:00:12;5.90;;;2.67;;
305;SDS011;137;48.578;9.180;2022-12-26T11:03:03;2.33;;;2.10;;
305;SDS011;137;48.578;9.180;2022-12-26T11:05:31;5.20;;;3.00;;
305;SDS011;137;48.578;9.180;2022-12-26T11:08:05;3.37;;;3.07;;
305;SDS011;137;48.578;9.180;2022-12-26T11:10:34;3.70;;;3.40;;
305;SDS011;137;48.578;9.180;2022-12-26T11:13:03;3.80;;;2.93;;
305;SDS011;137;48.578;9.180;2022-12-26T11:15:33;5.57;;;3.47;;
305;SDS011;137;48.578;9.180;2022-12-26T11:18:07;4.70;;;4.20;;
305;SDS011;137;48.578;9.180;2022-12-26T11:20:42;4.57;;;3.70;;
305;SDS011;137;48.578;9.180;2022-12-26T11:23:20;6.50;;;5.78;;
305;SDS011;137;48.578;9.180;2022-12-26T11:25:49;7.03;;;6.05;;
305;SDS011;137;48.578;9.180;2022-12-26T11:28:22;6.13;;;5.53;;
305;SDS011;137;48.578;9.180;2022-12-26T11:30:59;6.70;;;4.70;;
305;SDS011;137;48.578;9.180;2022-12-26T11:33:30;6.93;;;4.93;;
305;SDS011;137;48.578;9.180;2022-12-26T11:36:08;8.17;;;4.90;;
305;SDS011;137;48.578;9.180;2022-12-26T11:38:44;5.47;;;4.47;;
305;SDS011;137;48.578;9.180;2022-12-26T11:41:29;6.27;;;4.43;;
305;SDS011;137;48.578;9.180;2022-12-26T11:44:10;6.20;;;4.50;;
305;SDS011;137;48.578;9.180;2022-12-26T11:46:41;5.23;;;3.73;;
305;SDS011;137;48.578;9.180;2022-12-26T11:49:16;5.13;;;3.27;;
305;SDS011;137;48.578;9.180;2022-12-26T11:51:47;5.03;;;3.90;;
305;SDS011;137;48.578;9.180;2022-12-26T11:54:19;4.50;;;3.67;;
305;SDS011;137;48.578;9.180;2022-12-26T11:56:59;16.73;;;3.93;;
305;SDS011;137;48.578;9.180;2022-12-26T11:59:27;3.30;;;2.93;;
305;SDS011;137;48.578;9.180;2022-12-26T12:04:45;5.63;;;3.03;;
305;SDS011;137;48.578;9.180;2022-12-26T12:07:15;3.40;;;3.00;;
305;SDS011;137;48.578;9.180;2022-12-26T12:09:50;3.40;;;3.10;;
305;SDS011;137;48.578;9.180;2022-12-26T12:12:26;4.13;;;3.10;;
305;SDS011;137;48.578;9.180;2022-12-26T12:15:01;3.57;;;3.27;;
305;SDS011;137;48.578;9.180;2022-12-26T12:17:39;3.03;;;2.10;;
305;SDS011;137;48.578;9.180;2022-12-26T12:20:29;3.07;;;2.37;;
305;SDS011;137;48.578;9.180;2022-12-26T12:23:11;2.87;;;2.10;;
305;SDS011;137;48.578;9.180;2022-12-26T12:25:56;1.90;;;1.70;;
305;SDS011;137;48.578;9.180;2022-12-26T12:28:33;1.97;;;1.63;;
305;SDS011;137;48.578;9.180;2022-12-26T12:31:11;1.60;;;1.50;;
305;SDS011;137;48.578;9.180;2022-12-26T12:33:45;1.70;;;1.30;;
305;SDS011;137;48.578;9.180;2022-12-26T12:36:20;1.80;;;1.30;;
305;SDS011;137;48.578;9.180;2022-12-26T12:38:53;3.20;;;1.40;;
305;SDS011;137;48.578;9.180;2022-12-26T12:41:30;2.47;;;1.50;;
305;SDS011;137;48.578;9.180;2022-12-26T12:44:22;1.73;;;1.50;;
305;SDS011;137;48.578;9.180;2022-12-26T12:47:01;1.90;;;1.10;;
305;SDS011;137;48.578;9.180;2022-12-26T12:49:44;1.40;;;1.10;;
305;SDS011;137;48.578;9.180;2022-12-26T12:52:23;2.67;;;1.10;;
305;SDS011;137;48.578;9.180;2022-12-26T12:57:50;1.90;;;1.10;;
305;SDS011;137;48.578;9.180;2022-12-26T13:00:22;1.30;;;1.00;;
305;SDS011;137;48.578;9.180;2022-12-26T13:02:54;1.10;;;1.00;;
305;SDS011;137;48.578;9.180;2022-12-26T13:05:27;1.17;;;0.87;;
305;SDS011;137;48.578;9.180;2022-12-26T13:08:03;2.53;;;1.00;;
305;SDS011;137;48.578;9.180;2022-12-26T13:10:33;1.30;;;0.93;;
305;SDS011;137;48.578;9.180;2022-12-26T13:13:07;1.20;;;0.93;;
305;SDS011;137;48.578;9.180;2022-12-26T13:15:39;2.40;;;1.07;;
305;SDS011;137;48.578;9.180;2022-12-26T13:18:10;2.20;;;1.40;;
305;SDS011;137;48.578;9.180;2022-12-26T13:20:41;1.57;;;1.20;;
305;SDS011;137;48.578;9.180;2022-12-26T13:23:15;2.70;;;1.23;;
305;SDS011;137;48.578;9.180;2022-12-26T13:26:04;1.33;;;1.00;;
305;SDS011;137;48.578;9.180;2022-12-26T13:28:37;1.10;;;0.80;;
305;SDS011;137;48.578;9.180;2022-12-26T13:31:10;1.97;;;1.50;;
305;SDS011;137;48.578;9.180;2022-12-26T13:33:39;2.07;;;1.30;;
305;SDS011;137;48.578;9.180;2022-12-26T13:36:07;2.50;;;1.50;;
305;SDS011;137;48.578;9.180;2022-12-26T13:41:38;3.37;;;1.37;;
305;SDS011;137;48.578;9.180;2022-12-26T13:44:29;1.27;;;1.03;;
305;SDS011;137;48.578;9.180;2022-12-26T13:46:57;1.03;;;0.73;;
305;SDS011;137;48.578;9.180;2022-12-26T13:49:25;1.10;;;0.70;;
305;SDS011;137;48.578;9.180;2022-12-26T13:51:55;1.40;;;1.07;;
305;SDS011;137;48.578;9.180;2022-12-26T13:54:24;1.97;;;1.00;;
305;SDS011;137;48.578;9.180;2022-12-26T14:06:17;2.00;;;1.03;;
305;SDS011;137;48.578;9.180;2022-12-26T14:09:10;1.40;;;1.00;;
305;SDS011;137;48.578;9.180;2022-12-26T14:12:02;1.10;;;0.80;;
305;SDS011;137;48.578;9.180;2022-12-26T14:17:48;2.50;;;0.80;;
305;SDS011;137;48.578;9.180;2022-12-26T14:20:25;2.37;;;1.20;;
305;SDS011;137;48.578;9.180;2022-12-26T14:23:02;1.10;;;0.80;;
305;SDS011;137;48.578;9.180;2022-12-26T14:25:38;1.00;;;0.70;;
305;SDS011;137;48.578;9.180;2022-12-26T14:28:17;1.20;;;0.80;;
305;SDS011;137;48.578;9.180;2022-12-26T14:30:51;1.77;;;0.90;;
305;SDS011;137;48.578;9.180;2022-12-26T14:33:30;1.07;;;0.73;;
305;SDS011;137;48.578;9.180;2022-12-26T14:36:06;1.10;;;0.80;;
305;SDS011;137;48.578;9.180;2022-12-26T14:38:43;1.00;;;0.70;;
305;SDS011;137;48.578;9.180;2022-12-26T14:41:16;2.80;;;0.93;;
305;SDS011;137;48.578;9.180;2022-12-26T14:44:08;1.00;;;0.70;;
305;SDS011;137;48.578;9.180;2022-12-26T14:47:02;1.30;;;0.83;;
305;SDS011;137;48.578;9.180;2022-12-26T14:49:36;1.40;;;0.67;;
305;SDS011;137;48.578;9.180;2022-12-26T14:58:23;1.13;;;0.80;;
305;SDS011;137;48.578;9.180;2022-12-26T15:00:55;1.30;;;1.00;;
305;SDS011;137;48.578;9.180;2022-12-26T15:03:44;3.33;;;1.03;;
305;SDS011;137;48.578;9.180;2022-12-26T15:09:30;1.23;;;1.00;;
305;SDS011;137;48.578;9.180;2022-12-26T15:15:33;0.97;;;0.63;;
305;SDS011;137;48.578;9.180;2022-12-26T15:18:22;1.50;;;1.10;;
305;SDS011;137;48.578;9.180;2022-12-26T15:21:19;1.90;;;0.97;;
305;SDS011;137;48.578;9.180;2022-12-26T15:24:14;1.50;;;0.90;;
305;SDS011;137;48.578;9.180;2022-12-26T15:27:02;2.10;;;0.80;;
305;SDS011;137;48.578;9.180;2022-12-26T15:29:59;1.73;;;0.80;;
305;SDS011;137;48.578;9.180;2022-12-26T15:32:42;1.03;;;0.70;;
305;SDS011;137;48.578;9.180;2022-12-26T15:35:18;1.20;;;0.70;;
305;SDS011;137;48.578;9.180;2022-12-26T15:40:43;1.63;;;0.70;;
305;SDS011;137;48.578;9.180;2022-12-26T15:43:21;1.67;;;0.63;;
305;SDS011;137;48.578;9.180;2022-12-26T15:45:59;1.10;;;0.73;;
305;SDS011;137;48.578;9.180;2022-12-26T15:48:37;1.57;;;0.73;;
305;SDS011;137;48.578;9.180;2022-12-26T15:51:16;1.00;;;0.60;;
305;SDS011;137;48.578;9.180;2022-12-26T15:53:55;1.10;;;0.80;;
305;SDS011;137;48.578;9.180;2022-12-26T15:56:38;1.00;;;0.70;;
305;SDS011;137;48.578;9.180;2022-12-26T16:02:37;1.00;;;0.60;;
305;SDS011;137;48.578;9.180;2022-12-26T16:05:25;1.03;;;0.70;;
305;SDS011;137;48.578;9.180;2022-12-26T16:08:01;1.30;;;0.90;;
305;SDS011;137;48.578;9.180;2022-12-26T16:10:42;1.10;;;0.80;;
305;SDS011;137;48.578;9.180;2022-12-26T16:13:15;1.10;;;0.80;;
305;SDS011;137;48.578;9.180;2022-12-26T16:15:47;1.23;;;0.80;;
305;SDS011;137;48.578;9.180;2022-12-26T16:18:16;1.00;;;0.60;;
305;SDS011;137;48.578;9.180;2022-12-26T16:20:44;1.30;;;1.00;;
305;SDS011;137;48.578;9.180;2022-12-26T16:23:31;1.10;;;0.70;;
305;SDS011;137;48.578;9.180;2022-12-26T16:26:03;1.43;;;0.70;;
305;SDS011;137;48.578;9.180;2022-12-26T16:28:33;2.60;;;0.90;;
305;SDS011;137;48.578;9.180;2022-12-26T16:31:01;1.10;;;0.90;;
305;SDS011;137;48.578;9.180;2022-12-26T16:33:29;1.00;;;0.73;;
305;SDS011;137;48.578;9.180;2022-12-26T16:35:59;1.30;;;0.80;;
305;SDS011;137;48.578;9.180;2022-12-26T16:38:28;1.47;;;0.90;;
305;SDS011;137;48.578;9.180;2022-12-26T16:40:56;1.10;;;0.77;;
305;SDS011;137;48.578;9.180;2022-12-26T16:43:26;1.20;;;0.80;;
305;SDS011;137;48.578;9.180;2022-12-26T16:45:55;1.40;;;0.90;;
305;SDS011;137;48.578;9.180;2022-12-26T16:48:27;1.40;;;0.90;;
305;SDS011;137;48.578;9.180;2022-12-26T16:50:58;1.10;;;0.77;;
305;SDS011;137;48.578;9.180;2022-12-26T16:53:40;1.00;;;0.73;;
305;SDS011;137;48.578;9.180;2022-12-26T16:56:20;1.10;;;0.87;;
305;SDS011;137;48.578;9.180;2022-12-26T16:58:53;1.30;;;0.90;;
305;SDS011;137;48.578;9.180;2022-12-26T17:01:24;1.07;;;0.80;;
305;SDS011;137;48.578;9.180;2022-12-26T17:03:53;1.10;;;0.60;;
305;SDS011;137;48.578;9.180;2022-12-26T17:06:23;1.10;;;0.83;;
305;SDS011;137;48.578;9.180;2022-12-26T17:08:53;1.70;;;1.00;;
305;SDS011;137;48.578;9.180;2022-12-26T17:11:25;1.00;;;0.80;;
305;SDS011;137;48.578;9.180;2022-12-26T17:13:54;1.30;;;0.97;;
305;SDS011;137;48.578;9.180;2022-12-26T17:16:23;1.40;;;1.03;;
305;SDS011;137;48.578;9.180;2022-12-26T17:18:52;1.37;;;0.90;;
305;SDS011;137;48.578;9.180;2022-12-26T17:21:21;1.20;;;0.90;;
305;SDS011;137;48.578;9.180;2022-12-26T17:26:52;1.53;;;1.00;;
305;SDS011;137;48.578;9.180;2022-12-26T17:29:35;1.67;;;0.80;;
305;SDS011;137;48.578;9.180;2022-12-26T17:32:11;1.30;;;1.00;;
305;SDS011;137;48.578;9.180;2022-12-26T17:34:41;2.67;;;1.30;;
305;SDS011;137;48.578;9.180;2022-12-26T17:37:13;2.70;;;1.20;;
305;SDS011;137;48.578;9.180;2022-12-26T17:39:53;4.00;;;1.37;;
305;SDS011;137;48.578;9.180;2022-12-26T17:42:23;1.47;;;1.07;;
305;SDS011;137;48.578;9.180;2022-12-26T17:44:49;1.33;;;1.00;;
305;SDS011;137;48.578;9.180;2022-12-26T17:47:19;1.53;;;1.10;;
305;SDS011;137;48.578;9.180;2022-12-26T17:49:48;1.50;;;1.10;;
305;SDS011;137;48.578;9.180;2022-12-26T17:52:16;1.90;;;1.20;;
305;SDS011;137;48.578;9.180;2022-12-26T17:54:45;1.73;;;1.17;;
305;SDS011;137;48.578;9.180;2022-12-26T17:57:15;1.50;;;1.37;;
305;SDS011;137;48.578;9.180;2022-12-26T17:59:43;2.40;;;1.10;;
305;SDS011;137;48.578;9.180;2022-12-26T18:02:10;1.60;;;1.20;;
305;SDS011;137;48.578;9.180;2022-12-26T18:04:38;1.13;;;1.03;;
305;SDS011;137;48.578;9.180;2022-12-26T18:07:06;1.40;;;1.23;;
305;SDS011;137;48.578;9.180;2022-12-26T18:09:35;1.30;;;1.17;;
305;SDS011;137;48.578;9.180;2022-12-26T18:12:03;1.90;;;1.30;;
305;SDS011;137;48.578;9.180;2022-12-26T18:14:30;1.90;;;1.33;;
305;SDS011;137;48.578;9.180;2022-12-26T18:16:56;1.90;;;1.27;;
305;SDS011;137;48.578;9.180;2022-12-26T18:19:25;1.60;;;1.30;;
305;SDS011;137;48.578;9.180;2022-12-26T18:21:53;2.00;;;1.50;;
305;SDS011;137;48.578;9.180;2022-12-26T18:24:20;1.57;;;1.10;;
305;SDS011;137;48.578;9.180;2022-12-26T18:26:47;1.70;;;1.30;;
305;SDS011;137;48.578;9.180;2022-12-26T18:29:15;1.27;;;1.00;;
305;SDS011;137;48.578;9.180;2022-12-26T18:31:42;1.67;;;0.83;;
305;SDS011;137;48.578;9.180;2022-12-26T18:34:09;1.10;;;0.80;;
305;SDS011;137;48.578;9.180;2022-12-26T18:36:36;0.90;;;0.60;;
305;SDS011;137;48.578;9.180;2022-12-26T18:39:24;0.93;;;0.60;;
305;SDS011;137;48.578;9.180;2022-12-26T18:42:07;1.17;;;0.70;;
305;SDS011;137;48.578;9.180;2022-12-26T18:44:51;1.00;;;0.60;;
305;SDS011;137;48.578;9.180;2022-12-26T18:47:21;2.00;;;0.70;;
305;SDS011;137;48.578;9.180;2022-12-26T18:50:06;0.90;;;0.50;;
305;SDS011;137;48.578;9.180;2022-12-26T18:52:54;3.13;;;0.50;;
305;SDS011;137;48.578;9.180;2022-12-26T19:27:27;0.90;;;0.50;;
305;SDS011;137;48.578;9.180;2022-12-26T19:30:08;0.80;;;0.50;;
305;SDS011;137;48.578;9.180;2022-12-26T19:32:50;1.60;;;0.57;;
305;SDS011;137;48.578;9.180;2022-12-26T19:35:32;1.40;;;0.87;;
305;SDS011;137;48.578;9.180;2022-12-26T19:38:13;1.00;;;0.70;;
305;SDS011;137;48.578;9.180;2022-12-26T19:47:02;1.30;;;1.00;;
305;SDS011;137;48.578;9.180;2022-12-26T19:49:43;1.30;;;1.00;;
305;SDS011;137;48.578;9.180;2022-12-26T19:52:24;7.60;;;1.67;;
305;SDS011;137;48.578;9.180;2022-12-26T19:55:09;1.20;;;1.00;;
305;SDS011;137;48.578;9.180;2022-12-26T19:57:52;2.13;;;1.23;;
305;SDS011;137;48.578;9.180;2022-12-26T20:57:37;1.10;;;0.80;;
305;SDS011;137;48.578;9.180;2022-12-26T21:00:10;1.50;;;1.10;;
305;SDS011;137;48.578;9.180;2022-12-26T21:02:39;0.90;;;0.50;;
305;SDS011;137;48.578;9.180;2022-12-26T21:05:13;0.90;;;0.60;;
305;SDS011;137;48.578;9.180;2022-12-26T21:07:41;0.97;;;0.50;;
305;SDS011;137;48.578;9.180;2022-12-26T21:10:08;2.60;;;0.80;;
305;SDS011;137;48.578;9.180;2022-12-26T21:12:39;1.03;;;0.70;;
305;SDS011;137;48.578;9.180;2022-12-26T21:15:06;1.20;;;0.70;;
305;SDS011;137;48.578;9.180;2022-12-26T21:17:34;1.50;;;1.00;;
305;SDS011;137;48.578;9.180;2022-12-26T21:20:01;1.77;;;0.70;;
305;SDS011;137;48.578;9.180;2022-12-26T21:22:28;1.13;;;0.60;;
305;SDS011;137;48.578;9.180;2022-12-26T21:24:54;0.90;;;0.60;;
305;SDS011;137;48.578;9.180;2022-12-26T21:27:21;1.00;;;0.60;;
305;SDS011;137;48.578;9.180;2022-12-26T21:29:50;1.00;;;0.70;;
305;SDS011;137;48.578;9.180;2022-12-26T21:32:16;1.37;;;0.60;;